sensor_id;sensor_type;location;lat;lon;timestamp;P1;durP1;ratioP1;P2;durP2;ratioP2
29314;SDS011;16320;53.954;9.506;2023-05-29T00:01:28;12.57;;;2.80;;
29314;SDS011;16320;53.954;9.506;2023-05-29T00:04:35;15.27;;;2.90;;
29314;SDS011;16320;53.954;9.506;2023-05-29T00:07:40;13.23;;;3.45;;
29314;SDS011;16320;53.954;9.506;2023-05-29T00:10:45;20.92;;;4.03;;
29314;SDS011;16320;53.954;9.506;2023-05-29T00:13:50;14.88;;;2.85;;
29314;SDS011;16320;53.954;9.506;2023-05-29T00:16:54;13.23;;;2.70;;
29314;SDS011;16320;53.954;9.506;2023-05-29T00:20:00;18.40;;;3.63;;
29314;SDS011;16320;53.954;9.506;2023-05-29T00:23:24;17.73;;;2.83;;
29314;SDS011;16320;53.954;9.506;2023-05-29T00:26:28;16.08;;;2.78;;
29314;SDS011;16320;53.954;9.506;2023-05-29T00:29:32;26.77;;;3.92;;
29314;SDS011;16320;53.954;9.506;2023-05-29T00:32:37;14.77;;;4.30;;
29314;SDS011;16320;53.954;9.506;2023-05-29T00:35:42;19.33;;;2.97;;
29314;SDS011;16320;53.954;9.506;2023-05-29T00:41:50;19.70;;;3.17;;
29314;SDS011;16320;53.954;9.506;2023-05-29T00:44:55;14.38;;;2.70;;
29314;SDS011;16320;53.954;9.506;2023-05-29T00:48:00;15.73;;;3.30;;
29314;SDS011;16320;53.954;9.506;2023-05-29T00:51:04;12.93;;;3.00;;
29314;SDS011;16320;53.954;9.506;2023-05-29T00:54:14;26.27;;;3.78;;
29314;SDS011;16320;53.954;9.506;2023-05-29T00:57:32;19.02;;;3.53;;
29314;SDS011;16320;53.954;9.506;2023-05-29T01:00:38;15.43;;;3.25;;
29314;SDS011;16320;53.954;9.506;2023-05-29T01:03:42;16.35;;;2.90;;
29314;SDS011;16320;53.954;9.506;2023-05-29T01:06:47;27.88;;;3.38;;
29314;SDS011;16320;53.954;9.506;2023-05-29T01:09:53;17.60;;;4.13;;
29314;SDS011;16320;53.954;9.506;2023-05-29T01:13:08;21.52;;;3.42;;
29314;SDS011;16320;53.954;9.506;2023-05-29T01:16:31;15.30;;;2.63;;
29314;SDS011;16320;53.954;9.506;2023-05-29T01:26:46;16.60;;;3.85;;
29314;SDS011;16320;53.954;9.506;2023-05-29T01:30:14;15.85;;;3.00;;
29314;SDS011;16320;53.954;9.506;2023-05-29T01:33:19;13.45;;;3.67;;
29314;SDS011;16320;53.954;9.506;2023-05-29T01:36:24;15.68;;;3.13;;
29314;SDS011;16320;53.954;9.506;2023-05-29T01:39:30;23.30;;;3.20;;
29314;SDS011;16320;53.954;9.506;2023-05-29T01:42:36;15.65;;;3.33;;
29314;SDS011;16320;53.954;9.506;2023-05-29T01:45:41;22.15;;;3.88;;
29314;SDS011;16320;53.954;9.506;2023-05-29T01:48:46;23.17;;;4.13;;
29314;SDS011;16320;53.954;9.506;2023-05-29T01:51:51;22.67;;;3.30;;
29314;SDS011;16320;53.954;9.506;2023-05-29T01:54:55;24.95;;;3.58;;
29314;SDS011;16320;53.954;9.506;2023-05-29T01:58:01;12.93;;;3.72;;
29314;SDS011;16320;53.954;9.506;2023-05-29T02:01:06;24.13;;;3.17;;
29314;SDS011;16320;53.954;9.506;2023-05-29T02:04:11;17.25;;;3.03;;
29314;SDS011;16320;53.954;9.506;2023-05-29T02:07:15;22.77;;;3.17;;
29314;SDS011;16320;53.954;9.506;2023-05-29T02:10:20;14.88;;;3.83;;
29314;SDS011;16320;53.954;9.506;2023-05-29T02:13:24;20.92;;;3.30;;
29314;SDS011;16320;53.954;9.506;2023-05-29T02:16:29;20.05;;;2.80;;
29314;SDS011;16320;53.954;9.506;2023-05-29T02:19:37;35.15;;;4.55;;
29314;SDS011;16320;53.954;9.506;2023-05-29T02:22:42;17.58;;;3.30;;
29314;SDS011;16320;53.954;9.506;2023-05-29T02:28:56;19.17;;;3.67;;
29314;SDS011;16320;53.954;9.506;2023-05-29T02:32:05;25.05;;;3.42;;
29314;SDS011;16320;53.954;9.506;2023-05-29T02:35:10;23.70;;;4.43;;
29314;SDS011;16320;53.954;9.506;2023-05-29T02:38:17;17.10;;;3.13;;
29314;SDS011;16320;53.954;9.506;2023-05-29T02:41:22;29.73;;;3.72;;
29314;SDS011;16320;53.954;9.506;2023-05-29T02:44:26;23.23;;;3.65;;
29314;SDS011;16320;53.954;9.506;2023-05-29T02:47:31;18.23;;;3.28;;
29314;SDS011;16320;53.954;9.506;2023-05-29T02:50:36;23.13;;;4.18;;
29314;SDS011;16320;53.954;9.506;2023-05-29T02:53:40;18.20;;;2.92;;
29314;SDS011;16320;53.954;9.506;2023-05-29T02:56:45;22.48;;;4.90;;
29314;SDS011;16320;53.954;9.506;2023-05-29T02:59:50;15.98;;;3.03;;
29314;SDS011;16320;53.954;9.506;2023-05-29T03:02:55;18.45;;;3.28;;
29314;SDS011;16320;53.954;9.506;2023-05-29T03:06:00;20.45;;;3.28;;
29314;SDS011;16320;53.954;9.506;2023-05-29T03:09:05;20.10;;;4.30;;
29314;SDS011;16320;53.954;9.506;2023-05-29T03:12:10;20.67;;;3.90;;
29314;SDS011;16320;53.954;9.506;2023-05-29T03:15:15;15.15;;;2.97;;
29314;SDS011;16320;53.954;9.506;2023-05-29T03:18:20;13.93;;;3.45;;
29314;SDS011;16320;53.954;9.506;2023-05-29T03:21:24;19.10;;;3.92;;
29314;SDS011;16320;53.954;9.506;2023-05-29T03:24:29;16.60;;;3.40;;
29314;SDS011;16320;53.954;9.506;2023-05-29T03:27:34;17.25;;;2.88;;
29314;SDS011;16320;53.954;9.506;2023-05-29T03:30:38;20.23;;;3.75;;
29314;SDS011;16320;53.954;9.506;2023-05-29T03:33:43;24.00;;;4.28;;
29314;SDS011;16320;53.954;9.506;2023-05-29T03:36:47;23.83;;;3.67;;
29314;SDS011;16320;53.954;9.506;2023-05-29T03:39:52;23.55;;;5.18;;
29314;SDS011;16320;53.954;9.506;2023-05-29T03:42:57;16.65;;;4.25;;
29314;SDS011;16320;53.954;9.506;2023-05-29T03:46:01;18.42;;;3.55;;
29314;SDS011;16320;53.954;9.506;2023-05-29T03:49:05;18.30;;;3.58;;
29314;SDS011;16320;53.954;9.506;2023-05-29T03:52:11;17.33;;;3.08;;
29314;SDS011;16320;53.954;9.506;2023-05-29T03:55:16;22.08;;;4.70;;
29314;SDS011;16320;53.954;9.506;2023-05-29T03:58:20;19.85;;;3.60;;
29314;SDS011;16320;53.954;9.506;2023-05-29T04:01:25;27.50;;;4.90;;
29314;SDS011;16320;53.954;9.506;2023-05-29T04:07:34;13.30;;;3.10;;
29314;SDS011;16320;53.954;9.506;2023-05-29T04:10:42;24.75;;;4.63;;
29314;SDS011;16320;53.954;9.506;2023-05-29T04:13:48;22.75;;;5.03;;
29314;SDS011;16320;53.954;9.506;2023-05-29T04:16:52;24.58;;;4.88;;
29314;SDS011;16320;53.954;9.506;2023-05-29T04:19:57;21.80;;;4.10;;
29314;SDS011;16320;53.954;9.506;2023-05-29T04:23:02;19.02;;;3.40;;
29314;SDS011;16320;53.954;9.506;2023-05-29T04:26:06;25.55;;;4.28;;
29314;SDS011;16320;53.954;9.506;2023-05-29T04:29:11;18.70;;;4.55;;
29314;SDS011;16320;53.954;9.506;2023-05-29T04:32:17;22.60;;;4.03;;
29314;SDS011;16320;53.954;9.506;2023-05-29T04:35:22;18.42;;;3.97;;
29314;SDS011;16320;53.954;9.506;2023-05-29T04:38:26;23.52;;;4.47;;
29314;SDS011;16320;53.954;9.506;2023-05-29T04:41:31;20.35;;;4.15;;
29314;SDS011;16320;53.954;9.506;2023-05-29T04:44:35;19.40;;;4.07;;
29314;SDS011;16320;53.954;9.506;2023-05-29T04:47:40;23.75;;;4.43;;
29314;SDS011;16320;53.954;9.506;2023-05-29T04:50:47;20.00;;;4.57;;
29314;SDS011;16320;53.954;9.506;2023-05-29T04:53:52;17.55;;;4.65;;
29314;SDS011;16320;53.954;9.506;2023-05-29T04:56:56;24.88;;;4.60;;
29314;SDS011;16320;53.954;9.506;2023-05-29T05:00:01;22.40;;;4.28;;
29314;SDS011;16320;53.954;9.506;2023-05-29T05:03:10;21.63;;;4.22;;
29314;SDS011;16320;53.954;9.506;2023-05-29T05:06:15;27.05;;;4.28;;
29314;SDS011;16320;53.954;9.506;2023-05-29T05:09:20;20.45;;;3.80;;
29314;SDS011;16320;53.954;9.506;2023-05-29T05:12:25;16.40;;;3.53;;
29314;SDS011;16320;53.954;9.506;2023-05-29T05:15:29;21.50;;;3.92;;
29314;SDS011;16320;53.954;9.506;2023-05-29T05:18:34;21.45;;;5.32;;
29314;SDS011;16320;53.954;9.506;2023-05-29T05:21:40;20.33;;;4.03;;
29314;SDS011;16320;53.954;9.506;2023-05-29T05:24:45;28.48;;;4.47;;
29314;SDS011;16320;53.954;9.506;2023-05-29T05:27:49;27.05;;;3.90;;
29314;SDS011;16320;53.954;9.506;2023-05-29T05:30:53;25.67;;;4.82;;
29314;SDS011;16320;53.954;9.506;2023-05-29T05:33:58;18.23;;;3.58;;
29314;SDS011;16320;53.954;9.506;2023-05-29T05:37:03;18.27;;;3.60;;
29314;SDS011;16320;53.954;9.506;2023-05-29T05:40:07;28.38;;;4.72;;
29314;SDS011;16320;53.954;9.506;2023-05-29T05:43:12;26.63;;;4.53;;
29314;SDS011;16320;53.954;9.506;2023-05-29T05:46:17;21.20;;;3.90;;
29314;SDS011;16320;53.954;9.506;2023-05-29T05:49:21;20.73;;;3.92;;
29314;SDS011;16320;53.954;9.506;2023-05-29T05:52:26;28.58;;;4.60;;
29314;SDS011;16320;53.954;9.506;2023-05-29T05:55:34;27.00;;;4.50;;
29314;SDS011;16320;53.954;9.506;2023-05-29T05:58:39;22.15;;;4.75;;
29314;SDS011;16320;53.954;9.506;2023-05-29T06:01:45;30.17;;;5.07;;
29314;SDS011;16320;53.954;9.506;2023-05-29T06:04:50;22.80;;;5.28;;
29314;SDS011;16320;53.954;9.506;2023-05-29T06:07:55;32.40;;;4.63;;
29314;SDS011;16320;53.954;9.506;2023-05-29T06:10:59;24.42;;;5.40;;
29314;SDS011;16320;53.954;9.506;2023-05-29T06:14:04;22.00;;;4.68;;
29314;SDS011;16320;53.954;9.506;2023-05-29T06:17:08;24.10;;;4.00;;
29314;SDS011;16320;53.954;9.506;2023-05-29T06:20:13;21.95;;;4.38;;
29314;SDS011;16320;53.954;9.506;2023-05-29T06:23:17;26.15;;;4.13;;
29314;SDS011;16320;53.954;9.506;2023-05-29T06:26:22;25.60;;;4.60;;
29314;SDS011;16320;53.954;9.506;2023-05-29T06:29:28;30.17;;;5.38;;
29314;SDS011;16320;53.954;9.506;2023-05-29T06:32:33;32.03;;;6.57;;
29314;SDS011;16320;53.954;9.506;2023-05-29T06:35:37;30.05;;;4.88;;
29314;SDS011;16320;53.954;9.506;2023-05-29T06:38:45;22.40;;;4.55;;
29314;SDS011;16320;53.954;9.506;2023-05-29T06:42:12;24.50;;;4.55;;
29314;SDS011;16320;53.954;9.506;2023-05-29T06:45:17;24.75;;;4.57;;
29314;SDS011;16320;53.954;9.506;2023-05-29T06:48:21;26.25;;;4.93;;
29314;SDS011;16320;53.954;9.506;2023-05-29T06:51:26;28.23;;;5.07;;
29314;SDS011;16320;53.954;9.506;2023-05-29T06:54:30;19.67;;;3.90;;
29314;SDS011;16320;53.954;9.506;2023-05-29T06:57:34;29.13;;;4.38;;
29314;SDS011;16320;53.954;9.506;2023-05-29T07:00:39;28.55;;;4.72;;
29314;SDS011;16320;53.954;9.506;2023-05-29T07:03:45;22.88;;;3.58;;
29314;SDS011;16320;53.954;9.506;2023-05-29T07:06:50;31.15;;;5.28;;
29314;SDS011;16320;53.954;9.506;2023-05-29T07:09:55;21.05;;;4.53;;
29314;SDS011;16320;53.954;9.506;2023-05-29T07:19:26;28.00;;;4.47;;
29314;SDS011;16320;53.954;9.506;2023-05-29T07:22:32;22.08;;;4.60;;
29314;SDS011;16320;53.954;9.506;2023-05-29T07:25:38;23.02;;;4.60;;
29314;SDS011;16320;53.954;9.506;2023-05-29T07:28:43;25.40;;;5.20;;
29314;SDS011;16320;53.954;9.506;2023-05-29T07:34:51;25.73;;;4.75;;
29314;SDS011;16320;53.954;9.506;2023-05-29T07:38:00;24.55;;;4.15;;
29314;SDS011;16320;53.954;9.506;2023-05-29T07:41:06;33.97;;;6.38;;
29314;SDS011;16320;53.954;9.506;2023-05-29T07:44:10;22.88;;;4.20;;
29314;SDS011;16320;53.954;9.506;2023-05-29T07:47:15;20.20;;;3.70;;
29314;SDS011;16320;53.954;9.506;2023-05-29T07:50:19;24.40;;;3.83;;
29314;SDS011;16320;53.954;9.506;2023-05-29T07:53:23;22.25;;;4.32;;
29314;SDS011;16320;53.954;9.506;2023-05-29T07:56:28;25.83;;;4.45;;
29314;SDS011;16320;53.954;9.506;2023-05-29T07:59:32;28.80;;;4.65;;
29314;SDS011;16320;53.954;9.506;2023-05-29T08:02:39;20.95;;;3.72;;
29314;SDS011;16320;53.954;9.506;2023-05-29T08:05:43;21.25;;;3.75;;
29314;SDS011;16320;53.954;9.506;2023-05-29T08:08:48;19.25;;;3.97;;
29314;SDS011;16320;53.954;9.506;2023-05-29T08:11:53;19.77;;;4.18;;
29314;SDS011;16320;53.954;9.506;2023-05-29T08:18:01;17.00;;;4.20;;
29314;SDS011;16320;53.954;9.506;2023-05-29T08:25:03;20.58;;;3.78;;
29314;SDS011;16320;53.954;9.506;2023-05-29T08:28:07;24.13;;;4.65;;
29314;SDS011;16320;53.954;9.506;2023-05-29T08:31:12;18.05;;;4.78;;
29314;SDS011;16320;53.954;9.506;2023-05-29T08:34:16;26.05;;;3.95;;
29314;SDS011;16320;53.954;9.506;2023-05-29T08:37:21;15.90;;;3.15;;
29314;SDS011;16320;53.954;9.506;2023-05-29T08:43:30;32.95;;;4.07;;
29314;SDS011;16320;53.954;9.506;2023-05-29T08:46:35;19.02;;;3.45;;
29314;SDS011;16320;53.954;9.506;2023-05-29T08:49:42;16.50;;;4.03;;
29314;SDS011;16320;53.954;9.506;2023-05-29T08:52:47;17.27;;;4.18;;
29314;SDS011;16320;53.954;9.506;2023-05-29T08:55:51;15.40;;;3.28;;
29314;SDS011;16320;53.954;9.506;2023-05-29T08:58:56;20.05;;;3.50;;
29314;SDS011;16320;53.954;9.506;2023-05-29T09:02:01;21.02;;;3.75;;
29314;SDS011;16320;53.954;9.506;2023-05-29T09:05:06;24.10;;;4.40;;
29314;SDS011;16320;53.954;9.506;2023-05-29T09:08:13;16.48;;;3.22;;
29314;SDS011;16320;53.954;9.506;2023-05-29T09:11:18;20.05;;;3.20;;
29314;SDS011;16320;53.954;9.506;2023-05-29T09:14:37;16.27;;;3.63;;
29314;SDS011;16320;53.954;9.506;2023-05-29T09:17:54;18.23;;;3.00;;
29314;SDS011;16320;53.954;9.506;2023-05-29T09:21:07;23.40;;;3.25;;
29314;SDS011;16320;53.954;9.506;2023-05-29T09:24:13;19.08;;;3.33;;
29314;SDS011;16320;53.954;9.506;2023-05-29T09:27:18;16.77;;;3.53;;
29314;SDS011;16320;53.954;9.506;2023-05-29T09:30:36;20.20;;;3.85;;
29314;SDS011;16320;53.954;9.506;2023-05-29T09:33:48;13.57;;;3.15;;
29314;SDS011;16320;53.954;9.506;2023-05-29T09:37:00;16.83;;;3.83;;
29314;SDS011;16320;53.954;9.506;2023-05-29T09:40:11;14.68;;;3.35;;
29314;SDS011;16320;53.954;9.506;2023-05-29T09:46:21;18.08;;;3.60;;
29314;SDS011;16320;53.954;9.506;2023-05-29T09:49:25;17.08;;;2.90;;
29314;SDS011;16320;53.954;9.506;2023-05-29T09:52:31;19.58;;;3.50;;
29314;SDS011;16320;53.954;9.506;2023-05-29T09:55:36;14.50;;;2.95;;
29314;SDS011;16320;53.954;9.506;2023-05-29T09:58:41;10.38;;;3.00;;
29314;SDS011;16320;53.954;9.506;2023-05-29T10:01:54;10.63;;;2.40;;
29314;SDS011;16320;53.954;9.506;2023-05-29T10:05:06;16.15;;;2.78;;
29314;SDS011;16320;53.954;9.506;2023-05-29T10:08:15;16.13;;;3.17;;
29314;SDS011;16320;53.954;9.506;2023-05-29T10:11:22;14.90;;;2.60;;
29314;SDS011;16320;53.954;9.506;2023-05-29T10:14:30;9.95;;;2.35;;
29314;SDS011;16320;53.954;9.506;2023-05-29T10:17:37;14.40;;;2.95;;
29314;SDS011;16320;53.954;9.506;2023-05-29T10:20:43;14.95;;;3.22;;
29314;SDS011;16320;53.954;9.506;2023-05-29T10:23:49;14.23;;;2.85;;
29314;SDS011;16320;53.954;9.506;2023-05-29T10:26:54;10.55;;;2.80;;
29314;SDS011;16320;53.954;9.506;2023-05-29T10:30:15;12.93;;;2.33;;
29314;SDS011;16320;53.954;9.506;2023-05-29T10:33:53;11.63;;;2.90;;
29314;SDS011;16320;53.954;9.506;2023-05-29T10:37:36;15.38;;;3.00;;
29314;SDS011;16320;53.954;9.506;2023-05-29T10:40:55;11.25;;;3.10;;
29314;SDS011;16320;53.954;9.506;2023-05-29T10:47:34;13.05;;;2.45;;
29314;SDS011;16320;53.954;9.506;2023-05-29T10:50:42;15.27;;;3.38;;
29314;SDS011;16320;53.954;9.506;2023-05-29T10:53:49;11.05;;;3.03;;
29314;SDS011;16320;53.954;9.506;2023-05-29T10:56:58;11.35;;;2.47;;
29314;SDS011;16320;53.954;9.506;2023-05-29T11:00:05;10.85;;;2.60;;
29314;SDS011;16320;53.954;9.506;2023-05-29T11:03:21;14.52;;;2.58;;
29314;SDS011;16320;53.954;9.506;2023-05-29T11:06:34;10.95;;;3.17;;
29314;SDS011;16320;53.954;9.506;2023-05-29T11:09:39;13.15;;;2.47;;
29314;SDS011;16320;53.954;9.506;2023-05-29T11:12:58;11.82;;;2.50;;
29314;SDS011;16320;53.954;9.506;2023-05-29T11:16:14;13.25;;;2.85;;
29314;SDS011;16320;53.954;9.506;2023-05-29T11:19:29;10.02;;;2.40;;
29314;SDS011;16320;53.954;9.506;2023-05-29T11:25:51;10.82;;;2.55;;
29314;SDS011;16320;53.954;9.506;2023-05-29T11:28:57;13.30;;;2.78;;
29314;SDS011;16320;53.954;9.506;2023-05-29T11:32:15;10.45;;;2.63;;
29314;SDS011;16320;53.954;9.506;2023-05-29T11:35:21;14.07;;;3.22;;
29314;SDS011;16320;53.954;9.506;2023-05-29T11:38:27;12.20;;;2.75;;
29314;SDS011;16320;53.954;9.506;2023-05-29T11:41:32;9.88;;;2.78;;
29314;SDS011;16320;53.954;9.506;2023-05-29T11:44:36;13.10;;;2.50;;
29314;SDS011;16320;53.954;9.506;2023-05-29T11:47:51;13.13;;;2.83;;
29314;SDS011;16320;53.954;9.506;2023-05-29T11:51:02;14.88;;;2.75;;
29314;SDS011;16320;53.954;9.506;2023-05-29T11:54:11;15.38;;;2.50;;
29314;SDS011;16320;53.954;9.506;2023-05-29T11:57:19;11.98;;;2.55;;
29314;SDS011;16320;53.954;9.506;2023-05-29T12:00:25;11.35;;;2.85;;
29314;SDS011;16320;53.954;9.506;2023-05-29T12:03:45;13.68;;;2.97;;
29314;SDS011;16320;53.954;9.506;2023-05-29T12:06:49;10.25;;;2.47;;
29314;SDS011;16320;53.954;9.506;2023-05-29T12:09:54;16.38;;;3.83;;
29314;SDS011;16320;53.954;9.506;2023-05-29T12:13:01;12.15;;;2.50;;
29314;SDS011;16320;53.954;9.506;2023-05-29T12:16:05;11.43;;;2.78;;
29314;SDS011;16320;53.954;9.506;2023-05-29T12:19:13;8.77;;;2.30;;
29314;SDS011;16320;53.954;9.506;2023-05-29T12:22:18;11.48;;;2.95;;
29314;SDS011;16320;53.954;9.506;2023-05-29T12:25:38;7.32;;;2.10;;
29314;SDS011;16320;53.954;9.506;2023-05-29T12:28:44;13.98;;;2.72;;
29314;SDS011;16320;53.954;9.506;2023-05-29T12:31:57;15.10;;;3.03;;
29314;SDS011;16320;53.954;9.506;2023-05-29T12:35:09;13.70;;;2.95;;
29314;SDS011;16320;53.954;9.506;2023-05-29T12:38:18;9.05;;;2.58;;
29314;SDS011;16320;53.954;9.506;2023-05-29T12:41:28;13.80;;;3.83;;
29314;SDS011;16320;53.954;9.506;2023-05-29T12:44:37;16.35;;;3.03;;
29314;SDS011;16320;53.954;9.506;2023-05-29T12:48:00;13.02;;;2.72;;
29314;SDS011;16320;53.954;9.506;2023-05-29T12:51:07;11.80;;;3.00;;
29314;SDS011;16320;53.954;9.506;2023-05-29T12:54:12;9.93;;;2.67;;
29314;SDS011;16320;53.954;9.506;2023-05-29T12:57:18;11.38;;;2.95;;
29314;SDS011;16320;53.954;9.506;2023-05-29T13:00:22;12.70;;;3.22;;
29314;SDS011;16320;53.954;9.506;2023-05-29T13:03:27;12.68;;;3.58;;
29314;SDS011;16320;53.954;9.506;2023-05-29T13:06:34;17.58;;;3.65;;
29314;SDS011;16320;53.954;9.506;2023-05-29T13:09:40;15.85;;;3.60;;
29314;SDS011;16320;53.954;9.506;2023-05-29T13:12:45;14.73;;;3.05;;
29314;SDS011;16320;53.954;9.506;2023-05-29T13:15:50;16.90;;;3.13;;
29314;SDS011;16320;53.954;9.506;2023-05-29T13:18:55;13.50;;;3.53;;
29314;SDS011;16320;53.954;9.506;2023-05-29T13:21:59;11.55;;;2.67;;
29314;SDS011;16320;53.954;9.506;2023-05-29T13:25:03;14.80;;;2.90;;
29314;SDS011;16320;53.954;9.506;2023-05-29T13:28:12;13.00;;;2.67;;
29314;SDS011;16320;53.954;9.506;2023-05-29T13:31:17;13.95;;;3.08;;
29314;SDS011;16320;53.954;9.506;2023-05-29T13:34:22;11.27;;;3.03;;
29314;SDS011;16320;53.954;9.506;2023-05-29T13:37:29;17.10;;;3.20;;
29314;SDS011;16320;53.954;9.506;2023-05-29T13:40:33;14.07;;;2.70;;
29314;SDS011;16320;53.954;9.506;2023-05-29T13:43:38;18.05;;;2.92;;
29314;SDS011;16320;53.954;9.506;2023-05-29T13:46:47;15.50;;;3.38;;
29314;SDS011;16320;53.954;9.506;2023-05-29T13:49:52;17.20;;;3.58;;
29314;SDS011;16320;53.954;9.506;2023-05-29T13:52:57;16.65;;;3.08;;
29314;SDS011;16320;53.954;9.506;2023-05-29T13:56:01;16.50;;;3.28;;
29314;SDS011;16320;53.954;9.506;2023-05-29T13:59:06;15.60;;;3.15;;
29314;SDS011;16320;53.954;9.506;2023-05-29T14:02:10;11.68;;;2.92;;
29314;SDS011;16320;53.954;9.506;2023-05-29T14:05:15;12.13;;;2.63;;
29314;SDS011;16320;53.954;9.506;2023-05-29T14:08:19;20.15;;;3.28;;
29314;SDS011;16320;53.954;9.506;2023-05-29T14:11:24;15.35;;;3.53;;
29314;SDS011;16320;53.954;9.506;2023-05-29T14:14:29;14.77;;;2.95;;
29314;SDS011;16320;53.954;9.506;2023-05-29T14:17:33;14.98;;;3.28;;
29314;SDS011;16320;53.954;9.506;2023-05-29T14:20:38;14.00;;;2.92;;
29314;SDS011;16320;53.954;9.506;2023-05-29T14:23:43;18.00;;;3.88;;
29314;SDS011;16320;53.954;9.506;2023-05-29T14:26:47;23.58;;;4.07;;
29314;SDS011;16320;53.954;9.506;2023-05-29T14:29:52;17.55;;;3.45;;
29314;SDS011;16320;53.954;9.506;2023-05-29T14:32:57;15.40;;;3.60;;
29314;SDS011;16320;53.954;9.506;2023-05-29T14:36:02;11.00;;;2.25;;
29314;SDS011;16320;53.954;9.506;2023-05-29T14:39:07;20.98;;;3.25;;
29314;SDS011;16320;53.954;9.506;2023-05-29T14:42:11;17.08;;;3.47;;
29314;SDS011;16320;53.954;9.506;2023-05-29T14:45:16;15.27;;;3.17;;
29314;SDS011;16320;53.954;9.506;2023-05-29T14:48:20;16.15;;;3.97;;
29314;SDS011;16320;53.954;9.506;2023-05-29T14:51:25;21.88;;;3.42;;
29314;SDS011;16320;53.954;9.506;2023-05-29T14:54:30;18.02;;;3.47;;
29314;SDS011;16320;53.954;9.506;2023-05-29T14:57:34;16.45;;;3.40;;
29314;SDS011;16320;53.954;9.506;2023-05-29T15:00:39;15.80;;;2.90;;
29314;SDS011;16320;53.954;9.506;2023-05-29T15:03:44;21.48;;;3.33;;
29314;SDS011;16320;53.954;9.506;2023-05-29T15:06:49;14.15;;;3.28;;
29314;SDS011;16320;53.954;9.506;2023-05-29T15:10:08;17.42;;;3.53;;
29314;SDS011;16320;53.954;9.506;2023-05-29T15:13:13;18.85;;;3.60;;
29314;SDS011;16320;53.954;9.506;2023-05-29T15:16:17;17.13;;;3.58;;
29314;SDS011;16320;53.954;9.506;2023-05-29T15:19:22;14.68;;;2.85;;
29314;SDS011;16320;53.954;9.506;2023-05-29T15:22:26;19.45;;;3.45;;
29314;SDS011;16320;53.954;9.506;2023-05-29T15:29:41;17.73;;;3.38;;
29314;SDS011;16320;53.954;9.506;2023-05-29T15:32:46;9.25;;;2.58;;
29314;SDS011;16320;53.954;9.506;2023-05-29T15:35:51;11.82;;;3.45;;
29314;SDS011;16320;53.954;9.506;2023-05-29T15:38:56;14.90;;;3.55;;
29314;SDS011;16320;53.954;9.506;2023-05-29T15:42:00;13.63;;;3.05;;
29314;SDS011;16320;53.954;9.506;2023-05-29T15:45:07;15.40;;;3.00;;
29314;SDS011;16320;53.954;9.506;2023-05-29T15:48:11;15.10;;;2.67;;
29314;SDS011;16320;53.954;9.506;2023-05-29T15:51:15;15.55;;;3.17;;
29314;SDS011;16320;53.954;9.506;2023-05-29T15:57:24;12.82;;;3.00;;
29314;SDS011;16320;53.954;9.506;2023-05-29T16:00:29;17.67;;;3.30;;
29314;SDS011;16320;53.954;9.506;2023-05-29T16:03:33;19.40;;;3.20;;
29314;SDS011;16320;53.954;9.506;2023-05-29T16:06:38;15.30;;;2.80;;
29314;SDS011;16320;53.954;9.506;2023-05-29T16:09:42;16.55;;;3.72;;
29314;SDS011;16320;53.954;9.506;2023-05-29T16:12:47;8.05;;;2.38;;
29314;SDS011;16320;53.954;9.506;2023-05-29T16:15:52;12.05;;;2.72;;
29314;SDS011;16320;53.954;9.506;2023-05-29T16:18:57;13.80;;;2.58;;
29314;SDS011;16320;53.954;9.506;2023-05-29T16:22:03;9.23;;;2.05;;
29314;SDS011;16320;53.954;9.506;2023-05-29T16:25:08;11.98;;;2.25;;
29314;SDS011;16320;53.954;9.506;2023-05-29T16:28:14;10.40;;;2.10;;
29314;SDS011;16320;53.954;9.506;2023-05-29T16:31:18;13.85;;;2.47;;
29314;SDS011;16320;53.954;9.506;2023-05-29T16:34:23;11.70;;;2.47;;
29314;SDS011;16320;53.954;9.506;2023-05-29T16:37:28;10.02;;;2.10;;
29314;SDS011;16320;53.954;9.506;2023-05-29T16:40:32;12.68;;;2.70;;
29314;SDS011;16320;53.954;9.506;2023-05-29T16:43:37;8.10;;;2.30;;
29314;SDS011;16320;53.954;9.506;2023-05-29T16:49:46;8.23;;;2.30;;
29314;SDS011;16320;53.954;9.506;2023-05-29T16:52:51;10.30;;;2.03;;
29314;SDS011;16320;53.954;9.506;2023-05-29T16:55:55;14.65;;;2.05;;
29314;SDS011;16320;53.954;9.506;2023-05-29T16:59:00;15.88;;;2.70;;
29314;SDS011;16320;53.954;9.506;2023-05-29T17:02:05;11.60;;;2.40;;
29314;SDS011;16320;53.954;9.506;2023-05-29T17:05:10;16.00;;;2.60;;
29314;SDS011;16320;53.954;9.506;2023-05-29T17:08:14;12.63;;;2.53;;
29314;SDS011;16320;53.954;9.506;2023-05-29T17:14:25;13.65;;;2.92;;
29314;SDS011;16320;53.954;9.506;2023-05-29T17:17:29;16.48;;;3.00;;
29314;SDS011;16320;53.954;9.506;2023-05-29T17:20:33;15.05;;;2.70;;
29314;SDS011;16320;53.954;9.506;2023-05-29T17:23:39;15.65;;;3.28;;
29314;SDS011;16320;53.954;9.506;2023-05-29T17:26:43;12.15;;;2.90;;
29314;SDS011;16320;53.954;9.506;2023-05-29T17:39:53;14.88;;;2.88;;
29314;SDS011;16320;53.954;9.506;2023-05-29T17:42:57;15.07;;;3.25;;
29314;SDS011;16320;53.954;9.506;2023-05-29T17:49:06;18.67;;;3.00;;
29314;SDS011;16320;53.954;9.506;2023-05-29T17:52:11;15.98;;;3.28;;
29314;SDS011;16320;53.954;9.506;2023-05-29T17:55:15;19.48;;;2.85;;
29314;SDS011;16320;53.954;9.506;2023-05-29T18:02:26;24.92;;;3.70;;
29314;SDS011;16320;53.954;9.506;2023-05-29T18:05:30;21.17;;;2.92;;
29314;SDS011;16320;53.954;9.506;2023-05-29T18:08:36;23.38;;;3.42;;
29314;SDS011;16320;53.954;9.506;2023-05-29T18:11:41;19.05;;;3.95;;
29314;SDS011;16320;53.954;9.506;2023-05-29T18:14:49;15.27;;;3.13;;
29314;SDS011;16320;53.954;9.506;2023-05-29T18:17:54;22.58;;;3.63;;
29314;SDS011;16320;53.954;9.506;2023-05-29T18:20:59;18.45;;;3.70;;
29314;SDS011;16320;53.954;9.506;2023-05-29T18:24:07;18.55;;;3.22;;
29314;SDS011;16320;53.954;9.506;2023-05-29T18:27:11;20.60;;;3.78;;
29314;SDS011;16320;53.954;9.506;2023-05-29T18:30:16;17.45;;;3.88;;
29314;SDS011;16320;53.954;9.506;2023-05-29T18:33:21;25.23;;;3.60;;
29314;SDS011;16320;53.954;9.506;2023-05-29T18:36:25;19.05;;;3.65;;
29314;SDS011;16320;53.954;9.506;2023-05-29T18:39:30;21.55;;;3.88;;
29314;SDS011;16320;53.954;9.506;2023-05-29T18:42:34;22.35;;;4.40;;
29314;SDS011;16320;53.954;9.506;2023-05-29T18:45:38;14.50;;;2.50;;
29314;SDS011;16320;53.954;9.506;2023-05-29T18:48:43;23.40;;;3.97;;
29314;SDS011;16320;53.954;9.506;2023-05-29T18:51:48;17.77;;;3.83;;
29314;SDS011;16320;53.954;9.506;2023-05-29T18:54:52;18.88;;;4.03;;
29314;SDS011;16320;53.954;9.506;2023-05-29T18:57:57;14.75;;;4.05;;
29314;SDS011;16320;53.954;9.506;2023-05-29T19:01:02;17.35;;;2.85;;
29314;SDS011;16320;53.954;9.506;2023-05-29T19:04:28;20.50;;;4.10;;
29314;SDS011;16320;53.954;9.506;2023-05-29T19:07:33;17.23;;;4.03;;
29314;SDS011;16320;53.954;9.506;2023-05-29T19:10:39;25.10;;;4.15;;
29314;SDS011;16320;53.954;9.506;2023-05-29T19:13:45;25.52;;;4.72;;
29314;SDS011;16320;53.954;9.506;2023-05-29T19:16:51;16.50;;;3.47;;
29314;SDS011;16320;53.954;9.506;2023-05-29T19:19:56;19.98;;;4.00;;
29314;SDS011;16320;53.954;9.506;2023-05-29T19:23:01;15.38;;;2.97;;
29314;SDS011;16320;53.954;9.506;2023-05-29T19:26:07;16.70;;;4.15;;
29314;SDS011;16320;53.954;9.506;2023-05-29T19:29:12;25.25;;;3.83;;
29314;SDS011;16320;53.954;9.506;2023-05-29T19:35:23;16.15;;;3.53;;
29314;SDS011;16320;53.954;9.506;2023-05-29T19:38:28;19.65;;;4.60;;
29314;SDS011;16320;53.954;9.506;2023-05-29T19:41:32;15.77;;;3.95;;
29314;SDS011;16320;53.954;9.506;2023-05-29T19:44:40;18.08;;;3.72;;
29314;SDS011;16320;53.954;9.506;2023-05-29T19:47:45;34.15;;;5.65;;